Accueil
METAR-TAF:

METAR-TAF

Aéroports :

Brest, France

Aéroport de Brest-Bretagne

latitude: 48-27N, longitude: 004-25W, altitude: 99 m

Observation

Le bulletin a été fait il y a 41 minutes, à 17:00 UTC
Vent 6 kt de nord/nord-ouest
Température 15°C
Humidité 72%
Pression 1020 hPa
Visibilité 10 km ou plus
Quelques nuages à une hauteur de 2400 ft
Nuages épars à une hauteur de 3100 ft

METAR: LFRB 211700Z AUTO 33006KT 9999 FEW024 SCT031 15/10 Q1020 NOSIG

Heure: 19:41 (17:41 UTC)

Prévision

Le bulletin a été fait il y a 6 heures et 41 minutes, à 11:00 UTC
Prévision valable du 21 à 12 UTC au 22 à 18 UTC
Vent 8 kt de nord/nord-ouest
Visibilité 10 km ou plus
Nuages épars à une hauteur de 1800 ft
Nuages fragmentés à une hauteur de 2500 ft
Probabilité 30% :
Temporairement
du 22 à 03 UTC au 22 à 06 UTC
Visibilité: 2000 m
brume

TAF: LFRB 211100Z 2112/2218 33008KT 9999 SCT018 BKN025 PROB30 TEMPO 2203/2206 2000 BR

Observations et prévisions météorologiques de plus de 4000 aéroports (messages METAR et TAF).

Les stations disponibles sont représentées par des disques jaunes et rouges sur la carte.

Passer la souris dessus pour voir le nom de la station.

Cliquer dessus pour voir les observations et prévisions météorologiques.

Pour changer de carte: cliquez sur les boutons verts avec une croix noire pour zoomer, sur le bouton vert avec un tiret pour effectuer un zoom arrière, ou sur les flèches vertes pour les cartes adjacentes.


METAR-TAF: